sensor_id;sensor_type;location;lat;lon;timestamp;temperature;humidity
25616;DHT22;13482;48.234;13.006;2023-03-09T00:01:44;12.00;67.60
25616;DHT22;13482;48.234;13.006;2023-03-09T00:04:13;11.90;67.40
25616;DHT22;13482;48.234;13.006;2023-03-09T00:06:41;11.90;67.60
25616;DHT22;13482;48.234;13.006;2023-03-09T00:09:10;11.90;67.60
25616;DHT22;13482;48.234;13.006;2023-03-09T00:11:45;11.80;67.60
25616;DHT22;13482;48.234;13.006;2023-03-09T00:14:15;11.80;67.80
25616;DHT22;13482;48.234;13.006;2023-03-09T00:16:44;11.80;67.80
25616;DHT22;13482;48.234;13.006;2023-03-09T00:19:11;11.70;67.90
25616;DHT22;13482;48.234;13.006;2023-03-09T00:21:38;11.70;68.00
25616;DHT22;13482;48.234;13.006;2023-03-09T00:24:16;11.70;68.10
25616;DHT22;13482;48.234;13.006;2023-03-09T00:26:50;11.70;68.60
25616;DHT22;13482;48.234;13.006;2023-03-09T00:29:18;11.70;68.30
25616;DHT22;13482;48.234;13.006;2023-03-09T00:31:45;11.70;68.10
25616;DHT22;13482;48.234;13.006;2023-03-09T00:34:14;11.60;68.10
25616;DHT22;13482;48.234;13.006;2023-03-09T00:36:42;11.60;68.10
25616;DHT22;13482;48.234;13.006;2023-03-09T00:39:12;11.60;68.10
25616;DHT22;13482;48.234;13.006;2023-03-09T00:41:41;11.60;68.20
25616;DHT22;13482;48.234;13.006;2023-03-09T00:44:11;11.60;68.10
25616;DHT22;13482;48.234;13.006;2023-03-09T00:46:38;11.60;68.20
25616;DHT22;13482;48.234;13.006;2023-03-09T00:49:06;11.60;68.20
25616;DHT22;13482;48.234;13.006;2023-03-09T00:51:35;11.50;68.20
25616;DHT22;13482;48.234;13.006;2023-03-09T00:54:05;11.50;68.10
25616;DHT22;13482;48.234;13.006;2023-03-09T00:56:33;11.50;68.10
25616;DHT22;13482;48.234;13.006;2023-03-09T00:59:00;11.50;68.20
25616;DHT22;13482;48.234;13.006;2023-03-09T01:01:28;11.50;68.20
25616;DHT22;13482;48.234;13.006;2023-03-09T01:03:55;11.50;68.20
25616;DHT22;13482;48.234;13.006;2023-03-09T01:06:24;11.50;68.20
25616;DHT22;13482;48.234;13.006;2023-03-09T01:08:52;11.50;68.30
25616;DHT22;13482;48.234;13.006;2023-03-09T01:11:20;11.40;68.30
25616;DHT22;13482;48.234;13.006;2023-03-09T01:13:47;11.40;68.30
25616;DHT22;13482;48.234;13.006;2023-03-09T01:16:14;11.40;68.30
25616;DHT22;13482;48.234;13.006;2023-03-09T01:18:42;11.40;68.40
25616;DHT22;13482;48.234;13.006;2023-03-09T01:21:09;11.40;68.30
25616;DHT22;13482;48.234;13.006;2023-03-09T01:23:38;11.30;68.30
25616;DHT22;13482;48.234;13.006;2023-03-09T01:26:06;11.30;68.30
25616;DHT22;13482;48.234;13.006;2023-03-09T01:28:35;11.30;68.30
25616;DHT22;13482;48.234;13.006;2023-03-09T01:31:11;11.30;68.30
25616;DHT22;13482;48.234;13.006;2023-03-09T01:33:40;11.30;68.60
25616;DHT22;13482;48.234;13.006;2023-03-09T01:36:12;11.30;68.40
25616;DHT22;13482;48.234;13.006;2023-03-09T01:38:42;11.30;68.50
25616;DHT22;13482;48.234;13.006;2023-03-09T01:41:13;11.30;68.30
25616;DHT22;13482;48.234;13.006;2023-03-09T01:43:42;11.30;68.30
25616;DHT22;13482;48.234;13.006;2023-03-09T01:46:33;11.30;69.20
25616;DHT22;13482;48.234;13.006;2023-03-09T01:55:37;11.30;68.20
25616;DHT22;13482;48.234;13.006;2023-03-09T01:58:10;11.30;69.30
25616;DHT22;13482;48.234;13.006;2023-03-09T02:00:42;11.30;68.10
25616;DHT22;13482;48.234;13.006;2023-03-09T02:03:15;11.30;68.20
25616;DHT22;13482;48.234;13.006;2023-03-09T02:05:46;11.20;68.40
25616;DHT22;13482;48.234;13.006;2023-03-09T02:08:17;11.20;68.50
25616;DHT22;13482;48.234;13.006;2023-03-09T02:10:57;11.20;68.70
25616;DHT22;13482;48.234;13.006;2023-03-09T02:13:29;11.20;69.30
25616;DHT22;13482;48.234;13.006;2023-03-09T02:15:58;11.20;68.90
25616;DHT22;13482;48.234;13.006;2023-03-09T02:18:26;11.10;69.00
25616;DHT22;13482;48.234;13.006;2023-03-09T02:26:46;11.20;69.20
25616;DHT22;13482;48.234;13.006;2023-03-09T02:29:13;11.20;69.00
25616;DHT22;13482;48.234;13.006;2023-03-09T02:31:41;11.20;68.90
25616;DHT22;13482;48.234;13.006;2023-03-09T02:34:08;11.20;69.00
25616;DHT22;13482;48.234;13.006;2023-03-09T02:36:36;11.20;69.10
25616;DHT22;13482;48.234;13.006;2023-03-09T02:39:41;11.20;69.20
25616;DHT22;13482;48.234;13.006;2023-03-09T02:42:11;11.30;70.20
25616;DHT22;13482;48.234;13.006;2023-03-09T02:44:39;11.30;69.00
25616;DHT22;13482;48.234;13.006;2023-03-09T02:47:09;11.20;69.40
25616;DHT22;13482;48.234;13.006;2023-03-09T02:49:39;11.20;69.30
25616;DHT22;13482;48.234;13.006;2023-03-09T02:52:06;11.20;69.50
25616;DHT22;13482;48.234;13.006;2023-03-09T02:54:34;11.20;69.40
25616;DHT22;13482;48.234;13.006;2023-03-09T02:57:01;11.20;69.50
25616;DHT22;13482;48.234;13.006;2023-03-09T02:59:28;11.20;69.90
25616;DHT22;13482;48.234;13.006;2023-03-09T03:01:55;11.20;69.90
25616;DHT22;13482;48.234;13.006;2023-03-09T03:04:23;11.20;70.10
25616;DHT22;13482;48.234;13.006;2023-03-09T03:06:50;11.20;70.00
25616;DHT22;13482;48.234;13.006;2023-03-09T03:09:17;11.20;70.50
25616;DHT22;13482;48.234;13.006;2023-03-09T03:11:44;11.20;70.40
25616;DHT22;13482;48.234;13.006;2023-03-09T03:14:11;11.30;70.40
25616;DHT22;13482;48.234;13.006;2023-03-09T03:16:38;11.30;70.30
25616;DHT22;13482;48.234;13.006;2023-03-09T03:19:06;11.40;70.40
25616;DHT22;13482;48.234;13.006;2023-03-09T03:21:33;11.40;70.40
25616;DHT22;13482;48.234;13.006;2023-03-09T03:24:00;11.50;70.30
25616;DHT22;13482;48.234;13.006;2023-03-09T03:26:27;11.60;70.30
25616;DHT22;13482;48.234;13.006;2023-03-09T03:28:54;11.70;70.40
25616;DHT22;13482;48.234;13.006;2023-03-09T03:31:21;11.70;70.90
25616;DHT22;13482;48.234;13.006;2023-03-09T03:33:49;11.80;70.90
25616;DHT22;13482;48.234;13.006;2023-03-09T03:36:16;11.90;71.00
25616;DHT22;13482;48.234;13.006;2023-03-09T03:38:43;12.00;71.00
25616;DHT22;13482;48.234;13.006;2023-03-09T03:41:10;12.20;71.00
25616;DHT22;13482;48.234;13.006;2023-03-09T03:43:37;12.30;71.80
25616;DHT22;13482;48.234;13.006;2023-03-09T03:46:04;12.40;72.20
25616;DHT22;13482;48.234;13.006;2023-03-09T03:48:31;12.50;72.60
25616;DHT22;13482;48.234;13.006;2023-03-09T03:50:59;12.50;72.50
25616;DHT22;13482;48.234;13.006;2023-03-09T03:53:26;12.50;72.90
25616;DHT22;13482;48.234;13.006;2023-03-09T03:55:53;12.50;72.60
25616;DHT22;13482;48.234;13.006;2023-03-09T03:58:20;12.50;72.80
25616;DHT22;13482;48.234;13.006;2023-03-09T04:00:47;12.50;72.60
25616;DHT22;13482;48.234;13.006;2023-03-09T04:03:14;12.40;72.80
25616;DHT22;13482;48.234;13.006;2023-03-09T04:05:41;12.40;72.50
25616;DHT22;13482;48.234;13.006;2023-03-09T04:08:09;12.40;72.60
25616;DHT22;13482;48.234;13.006;2023-03-09T04:10:40;12.30;72.60
25616;DHT22;13482;48.234;13.006;2023-03-09T04:13:07;12.30;72.40
25616;DHT22;13482;48.234;13.006;2023-03-09T04:15:35;12.30;72.30
25616;DHT22;13482;48.234;13.006;2023-03-09T04:18:02;12.30;72.40
25616;DHT22;13482;48.234;13.006;2023-03-09T04:20:30;12.30;72.10
25616;DHT22;13482;48.234;13.006;2023-03-09T04:22:57;12.30;72.00
25616;DHT22;13482;48.234;13.006;2023-03-09T04:25:24;12.30;72.10
25616;DHT22;13482;48.234;13.006;2023-03-09T04:27:51;12.30;72.10
25616;DHT22;13482;48.234;13.006;2023-03-09T04:30:18;12.30;71.90
25616;DHT22;13482;48.234;13.006;2023-03-09T04:32:47;12.30;71.80
25616;DHT22;13482;48.234;13.006;2023-03-09T04:35:15;12.40;71.60
25616;DHT22;13482;48.234;13.006;2023-03-09T04:37:43;12.30;71.50
25616;DHT22;13482;48.234;13.006;2023-03-09T04:40:13;12.40;71.40
25616;DHT22;13482;48.234;13.006;2023-03-09T04:42:41;12.40;71.30
25616;DHT22;13482;48.234;13.006;2023-03-09T04:45:08;12.40;71.10
25616;DHT22;13482;48.234;13.006;2023-03-09T04:47:36;12.50;70.90
25616;DHT22;13482;48.234;13.006;2023-03-09T04:50:04;12.50;71.00
25616;DHT22;13482;48.234;13.006;2023-03-09T04:52:31;12.50;71.00
25616;DHT22;13482;48.234;13.006;2023-03-09T04:54:58;12.50;71.00
25616;DHT22;13482;48.234;13.006;2023-03-09T04:57:25;12.50;70.90
25616;DHT22;13482;48.234;13.006;2023-03-09T04:59:53;12.50;70.80
25616;DHT22;13482;48.234;13.006;2023-03-09T05:02:20;12.60;70.60
25616;DHT22;13482;48.234;13.006;2023-03-09T05:04:48;12.50;70.70
25616;DHT22;13482;48.234;13.006;2023-03-09T05:07:15;12.60;70.70
25616;DHT22;13482;48.234;13.006;2023-03-09T05:09:42;12.60;70.50
25616;DHT22;13482;48.234;13.006;2023-03-09T05:12:09;12.60;70.50
25616;DHT22;13482;48.234;13.006;2023-03-09T05:14:37;12.60;70.40
25616;DHT22;13482;48.234;13.006;2023-03-09T05:17:04;12.60;70.40
25616;DHT22;13482;48.234;13.006;2023-03-09T05:19:31;12.60;70.30
25616;DHT22;13482;48.234;13.006;2023-03-09T05:22:00;12.60;70.30
25616;DHT22;13482;48.234;13.006;2023-03-09T05:24:27;12.60;70.20
25616;DHT22;13482;48.234;13.006;2023-03-09T05:26:54;12.60;70.50
25616;DHT22;13482;48.234;13.006;2023-03-09T05:29:21;12.60;70.50
25616;DHT22;13482;48.234;13.006;2023-03-09T05:31:49;12.60;70.50
25616;DHT22;13482;48.234;13.006;2023-03-09T05:34:16;12.60;70.60
25616;DHT22;13482;48.234;13.006;2023-03-09T05:36:44;12.70;70.80
25616;DHT22;13482;48.234;13.006;2023-03-09T05:39:11;12.70;70.70
25616;DHT22;13482;48.234;13.006;2023-03-09T05:41:39;12.70;70.80
25616;DHT22;13482;48.234;13.006;2023-03-09T05:44:06;12.70;70.90
25616;DHT22;13482;48.234;13.006;2023-03-09T05:46:34;12.80;70.80
25616;DHT22;13482;48.234;13.006;2023-03-09T05:49:01;12.80;70.70
25616;DHT22;13482;48.234;13.006;2023-03-09T05:51:28;12.80;70.80
25616;DHT22;13482;48.234;13.006;2023-03-09T05:53:56;12.80;70.60
25616;DHT22;13482;48.234;13.006;2023-03-09T05:56:23;12.90;70.50
25616;DHT22;13482;48.234;13.006;2023-03-09T05:58:52;12.90;70.50
25616;DHT22;13482;48.234;13.006;2023-03-09T06:01:24;12.90;70.60
25616;DHT22;13482;48.234;13.006;2023-03-09T06:03:54;13.00;70.60
25616;DHT22;13482;48.234;13.006;2023-03-09T06:06:22;13.10;70.60
25616;DHT22;13482;48.234;13.006;2023-03-09T06:08:50;13.10;70.40
25616;DHT22;13482;48.234;13.006;2023-03-09T06:11:18;13.20;70.20
25616;DHT22;13482;48.234;13.006;2023-03-09T06:13:45;13.30;70.10
25616;DHT22;13482;48.234;13.006;2023-03-09T06:16:16;13.30;69.90
25616;DHT22;13482;48.234;13.006;2023-03-09T06:18:44;13.40;69.80
25616;DHT22;13482;48.234;13.006;2023-03-09T06:21:12;13.40;69.70
25616;DHT22;13482;48.234;13.006;2023-03-09T06:23:40;13.50;69.50
25616;DHT22;13482;48.234;13.006;2023-03-09T06:26:09;13.50;69.40
25616;DHT22;13482;48.234;13.006;2023-03-09T06:28:38;13.60;69.20
25616;DHT22;13482;48.234;13.006;2023-03-09T06:31:07;13.60;69.10
25616;DHT22;13482;48.234;13.006;2023-03-09T06:33:40;13.70;69.10
25616;DHT22;13482;48.234;13.006;2023-03-09T06:36:10;13.70;69.00
25616;DHT22;13482;48.234;13.006;2023-03-09T06:38:40;13.70;68.80
25616;DHT22;13482;48.234;13.006;2023-03-09T06:41:07;13.70;68.90
25616;DHT22;13482;48.234;13.006;2023-03-09T06:43:35;13.80;68.80
25616;DHT22;13482;48.234;13.006;2023-03-09T06:46:02;13.80;68.70
25616;DHT22;13482;48.234;13.006;2023-03-09T06:48:30;13.80;68.40
25616;DHT22;13482;48.234;13.006;2023-03-09T06:50:57;13.80;68.40
25616;DHT22;13482;48.234;13.006;2023-03-09T06:53:24;13.80;68.20
25616;DHT22;13482;48.234;13.006;2023-03-09T06:55:51;13.80;68.10
25616;DHT22;13482;48.234;13.006;2023-03-09T06:58:19;13.80;68.20
25616;DHT22;13482;48.234;13.006;2023-03-09T07:00:46;13.80;68.20
25616;DHT22;13482;48.234;13.006;2023-03-09T07:03:16;13.80;68.30
25616;DHT22;13482;48.234;13.006;2023-03-09T07:05:48;13.70;68.40
25616;DHT22;13482;48.234;13.006;2023-03-09T07:08:15;13.70;68.40
25616;DHT22;13482;48.234;13.006;2023-03-09T07:10:42;13.70;68.50
25616;DHT22;13482;48.234;13.006;2023-03-09T07:13:13;13.70;68.50
25616;DHT22;13482;48.234;13.006;2023-03-09T07:15:42;13.60;68.60
25616;DHT22;13482;48.234;13.006;2023-03-09T07:18:10;13.60;68.60
25616;DHT22;13482;48.234;13.006;2023-03-09T07:20:38;13.60;68.80
25616;DHT22;13482;48.234;13.006;2023-03-09T07:23:07;13.60;68.80
25616;DHT22;13482;48.234;13.006;2023-03-09T07:25:36;13.50;68.80
25616;DHT22;13482;48.234;13.006;2023-03-09T07:28:05;13.50;68.90
25616;DHT22;13482;48.234;13.006;2023-03-09T07:30:37;13.50;69.00
25616;DHT22;13482;48.234;13.006;2023-03-09T07:33:05;13.50;69.00
25616;DHT22;13482;48.234;13.006;2023-03-09T07:35:32;13.50;69.10
25616;DHT22;13482;48.234;13.006;2023-03-09T07:37:59;13.50;69.10
25616;DHT22;13482;48.234;13.006;2023-03-09T07:40:26;13.50;69.00
25616;DHT22;13482;48.234;13.006;2023-03-09T07:42:54;13.50;69.20
25616;DHT22;13482;48.234;13.006;2023-03-09T07:45:22;13.50;69.10
25616;DHT22;13482;48.234;13.006;2023-03-09T07:47:49;13.50;69.40
25616;DHT22;13482;48.234;13.006;2023-03-09T07:50:17;13.50;69.30
25616;DHT22;13482;48.234;13.006;2023-03-09T07:52:45;13.50;69.30
25616;DHT22;13482;48.234;13.006;2023-03-09T07:55:13;13.50;69.50
25616;DHT22;13482;48.234;13.006;2023-03-09T07:57:41;13.50;69.50
25616;DHT22;13482;48.234;13.006;2023-03-09T08:00:11;13.50;69.40
25616;DHT22;13482;48.234;13.006;2023-03-09T08:02:40;13.50;69.40
25616;DHT22;13482;48.234;13.006;2023-03-09T08:05:09;13.50;69.20
25616;DHT22;13482;48.234;13.006;2023-03-09T08:07:37;13.50;69.30
25616;DHT22;13482;48.234;13.006;2023-03-09T08:10:04;13.50;69.20
25616;DHT22;13482;48.234;13.006;2023-03-09T08:12:32;13.50;69.20
25616;DHT22;13482;48.234;13.006;2023-03-09T08:14:59;13.50;69.00
25616;DHT22;13482;48.234;13.006;2023-03-09T08:17:27;13.60;68.70
25616;DHT22;13482;48.234;13.006;2023-03-09T08:19:55;13.60;68.70
25616;DHT22;13482;48.234;13.006;2023-03-09T08:22:22;13.60;68.50
25616;DHT22;13482;48.234;13.006;2023-03-09T08:24:49;13.60;68.50
25616;DHT22;13482;48.234;13.006;2023-03-09T08:27:16;13.70;68.30
25616;DHT22;13482;48.234;13.006;2023-03-09T08:29:43;13.70;68.30
25616;DHT22;13482;48.234;13.006;2023-03-09T08:32:10;13.70;68.30
25616;DHT22;13482;48.234;13.006;2023-03-09T08:34:38;13.70;68.30
25616;DHT22;13482;48.234;13.006;2023-03-09T08:37:05;13.80;68.40
25616;DHT22;13482;48.234;13.006;2023-03-09T08:39:32;13.80;68.30
25616;DHT22;13482;48.234;13.006;2023-03-09T08:42:00;13.80;68.40
25616;DHT22;13482;48.234;13.006;2023-03-09T08:44:27;13.80;68.30
25616;DHT22;13482;48.234;13.006;2023-03-09T08:46:54;13.90;68.30
25616;DHT22;13482;48.234;13.006;2023-03-09T08:49:22;13.90;68.30
25616;DHT22;13482;48.234;13.006;2023-03-09T08:51:49;13.90;68.40
25616;DHT22;13482;48.234;13.006;2023-03-09T08:54:17;14.00;68.40
25616;DHT22;13482;48.234;13.006;2023-03-09T08:56:44;14.10;68.40
25616;DHT22;13482;48.234;13.006;2023-03-09T08:59:11;14.10;68.40
25616;DHT22;13482;48.234;13.006;2023-03-09T09:01:38;14.20;68.40
25616;DHT22;13482;48.234;13.006;2023-03-09T09:04:05;14.30;68.40
25616;DHT22;13482;48.234;13.006;2023-03-09T09:06:32;14.40;68.50
25616;DHT22;13482;48.234;13.006;2023-03-09T09:08:59;14.40;68.30
25616;DHT22;13482;48.234;13.006;2023-03-09T09:11:26;14.50;68.20
25616;DHT22;13482;48.234;13.006;2023-03-09T09:13:53;14.60;68.40
25616;DHT22;13482;48.234;13.006;2023-03-09T09:16:21;14.70;68.00
25616;DHT22;13482;48.234;13.006;2023-03-09T09:18:48;14.80;67.90
25616;DHT22;13482;48.234;13.006;2023-03-09T09:21:16;14.90;67.60
25616;DHT22;13482;48.234;13.006;2023-03-09T09:23:45;15.00;67.30
25616;DHT22;13482;48.234;13.006;2023-03-09T09:26:13;15.00;67.00
25616;DHT22;13482;48.234;13.006;2023-03-09T09:28:44;15.10;67.10
25616;DHT22;13482;48.234;13.006;2023-03-09T09:31:15;15.10;66.60
25616;DHT22;13482;48.234;13.006;2023-03-09T09:33:44;15.20;66.50
25616;DHT22;13482;48.234;13.006;2023-03-09T09:36:14;15.20;66.00
25616;DHT22;13482;48.234;13.006;2023-03-09T09:38:44;15.20;65.90
25616;DHT22;13482;48.234;13.006;2023-03-09T09:41:24;15.10;65.70
25616;DHT22;13482;48.234;13.006;2023-03-09T09:44:04;15.00;65.70
25616;DHT22;13482;48.234;13.006;2023-03-09T09:46:35;15.00;65.60
25616;DHT22;13482;48.234;13.006;2023-03-09T09:49:06;14.90;65.60
25616;DHT22;13482;48.234;13.006;2023-03-09T10:00:05;15.00;66.10
25616;DHT22;13482;48.234;13.006;2023-03-09T10:08:35;15.30;65.80
25616;DHT22;13482;48.234;13.006;2023-03-09T10:11:27;15.40;65.80
25616;DHT22;13482;48.234;13.006;2023-03-09T10:14:22;15.50;66.00
25616;DHT22;13482;48.234;13.006;2023-03-09T10:17:06;15.60;65.30
25616;DHT22;13482;48.234;13.006;2023-03-09T10:19:41;15.70;64.50
25616;DHT22;13482;48.234;13.006;2023-03-09T10:24:40;15.70;64.60
25616;DHT22;13482;48.234;13.006;2023-03-09T10:38:20;16.10;63.40
25616;DHT22;13482;48.234;13.006;2023-03-09T10:40:52;16.20;63.70
25616;DHT22;13482;48.234;13.006;2023-03-09T10:43:35;16.20;63.50
25616;DHT22;13482;48.234;13.006;2023-03-09T10:46:19;16.30;62.80
25616;DHT22;13482;48.234;13.006;2023-03-09T10:48:57;16.30;62.80
25616;DHT22;13482;48.234;13.006;2023-03-09T10:51:39;16.30;62.90
25616;DHT22;13482;48.234;13.006;2023-03-09T10:57:26;16.30;62.70
25616;DHT22;13482;48.234;13.006;2023-03-09T11:00:14;16.40;62.50
25616;DHT22;13482;48.234;13.006;2023-03-09T11:02:51;16.50;62.90
25616;DHT22;13482;48.234;13.006;2023-03-09T11:07:53;16.80;62.50
25616;DHT22;13482;48.234;13.006;2023-03-09T11:10:25;16.90;61.30
25616;DHT22;13482;48.234;13.006;2023-03-09T11:13:01;17.00;61.30
25616;DHT22;13482;48.234;13.006;2023-03-09T11:18:02;17.10;61.80
25616;DHT22;13482;48.234;13.006;2023-03-09T11:20:32;17.20;61.10
25616;DHT22;13482;48.234;13.006;2023-03-09T11:23:08;17.20;60.90
25616;DHT22;13482;48.234;13.006;2023-03-09T11:26:00;17.20;60.20
25616;DHT22;13482;48.234;13.006;2023-03-09T11:31:37;17.10;58.70
25616;DHT22;13482;48.234;13.006;2023-03-09T11:34:16;17.00;59.80
25616;DHT22;13482;48.234;13.006;2023-03-09T11:37:22;16.90;59.70
25616;DHT22;13482;48.234;13.006;2023-03-09T11:40:15;16.80;59.70
25616;DHT22;13482;48.234;13.006;2023-03-09T11:43:00;16.70;60.60
25616;DHT22;13482;48.234;13.006;2023-03-09T11:45:33;16.70;59.90
25616;DHT22;13482;48.234;13.006;2023-03-09T11:58:53;16.50;61.70
25616;DHT22;13482;48.234;13.006;2023-03-09T12:01:40;16.60;61.70
25616;DHT22;13482;48.234;13.006;2023-03-09T12:04:14;16.80;61.00
25616;DHT22;13482;48.234;13.006;2023-03-09T12:12:34;17.20;59.40
25616;DHT22;13482;48.234;13.006;2023-03-09T12:15:28;17.40;58.20
25616;DHT22;13482;48.234;13.006;2023-03-09T12:18:04;17.60;58.00
25616;DHT22;13482;48.234;13.006;2023-03-09T12:20:39;17.70;58.00
25616;DHT22;13482;48.234;13.006;2023-03-09T12:29:15;18.10;56.20
25616;DHT22;13482;48.234;13.006;2023-03-09T12:31:44;18.10;55.00
25616;DHT22;13482;48.234;13.006;2023-03-09T12:36:39;18.20;55.80
25616;DHT22;13482;48.234;13.006;2023-03-09T12:47:34;18.40;55.20
25616;DHT22;13482;48.234;13.006;2023-03-09T12:50:25;18.40;54.50
25616;DHT22;13482;48.234;13.006;2023-03-09T12:55:57;18.50;54.20
25616;DHT22;13482;48.234;13.006;2023-03-09T13:03:31;18.50;54.00
25616;DHT22;13482;48.234;13.006;2023-03-09T13:06:06;18.50;53.90
25616;DHT22;13482;48.234;13.006;2023-03-09T13:08:54;18.50;54.30
25616;DHT22;13482;48.234;13.006;2023-03-09T13:13:52;18.50;54.50
25616;DHT22;13482;48.234;13.006;2023-03-09T13:29:45;18.30;54.80
25616;DHT22;13482;48.234;13.006;2023-03-09T13:32:41;18.30;54.50
25616;DHT22;13482;48.234;13.006;2023-03-09T13:36:05;18.30;53.80
25616;DHT22;13482;48.234;13.006;2023-03-09T13:38:35;18.30;53.50
25616;DHT22;13482;48.234;13.006;2023-03-09T13:41:05;18.30;55.10
25616;DHT22;13482;48.234;13.006;2023-03-09T13:43:35;18.30;54.80
25616;DHT22;13482;48.234;13.006;2023-03-09T13:46:06;18.30;54.60
25616;DHT22;13482;48.234;13.006;2023-03-09T13:48:45;18.30;54.50
25616;DHT22;13482;48.234;13.006;2023-03-09T13:51:23;18.30;54.50
25616;DHT22;13482;48.234;13.006;2023-03-09T13:53:51;18.30;54.70
25616;DHT22;13482;48.234;13.006;2023-03-09T13:56:18;18.30;54.70
25616;DHT22;13482;48.234;13.006;2023-03-09T13:58:46;18.30;54.60
25616;DHT22;13482;48.234;13.006;2023-03-09T14:01:22;18.20;54.80
25616;DHT22;13482;48.234;13.006;2023-03-09T14:03:54;18.20;54.70
25616;DHT22;13482;48.234;13.006;2023-03-09T14:06:34;18.20;54.40
25616;DHT22;13482;48.234;13.006;2023-03-09T14:09:32;18.20;53.80
25616;DHT22;13482;48.234;13.006;2023-03-09T14:12:02;18.20;53.80
25616;DHT22;13482;48.234;13.006;2023-03-09T14:14:30;18.20;54.30
25616;DHT22;13482;48.234;13.006;2023-03-09T14:17:00;18.20;54.40
25616;DHT22;13482;48.234;13.006;2023-03-09T14:19:30;18.20;54.80
25616;DHT22;13482;48.234;13.006;2023-03-09T14:21:59;18.20;54.90
25616;DHT22;13482;48.234;13.006;2023-03-09T14:24:31;18.20;55.00
25616;DHT22;13482;48.234;13.006;2023-03-09T14:27:31;18.30;54.30
25616;DHT22;13482;48.234;13.006;2023-03-09T14:33:06;18.40;52.40
25616;DHT22;13482;48.234;13.006;2023-03-09T14:36:16;18.40;53.50
25616;DHT22;13482;48.234;13.006;2023-03-09T14:41:28;18.60;53.80
25616;DHT22;13482;48.234;13.006;2023-03-09T14:43:57;18.60;53.90
25616;DHT22;13482;48.234;13.006;2023-03-09T14:46:27;18.70;54.00
25616;DHT22;13482;48.234;13.006;2023-03-09T14:49:02;18.80;53.50
25616;DHT22;13482;48.234;13.006;2023-03-09T14:51:32;18.90;52.70
25616;DHT22;13482;48.234;13.006;2023-03-09T14:56:35;18.90;53.00
25616;DHT22;13482;48.234;13.006;2023-03-09T14:59:17;18.90;53.10
25616;DHT22;13482;48.234;13.006;2023-03-09T15:01:55;18.90;53.10
25616;DHT22;13482;48.234;13.006;2023-03-09T15:04:27;18.90;52.20
25616;DHT22;13482;48.234;13.006;2023-03-09T15:06:57;18.80;52.50
25616;DHT22;13482;48.234;13.006;2023-03-09T15:09:24;18.80;52.60
25616;DHT22;13482;48.234;13.006;2023-03-09T15:11:53;18.80;53.40
25616;DHT22;13482;48.234;13.006;2023-03-09T15:14:27;18.90;53.30
25616;DHT22;13482;48.234;13.006;2023-03-09T15:17:00;19.10;53.40
25616;DHT22;13482;48.234;13.006;2023-03-09T15:19:27;19.20;52.90
25616;DHT22;13482;48.234;13.006;2023-03-09T15:21:56;19.30;52.90
25616;DHT22;13482;48.234;13.006;2023-03-09T15:24:28;19.30;53.00
25616;DHT22;13482;48.234;13.006;2023-03-09T15:27:00;19.40;52.90
25616;DHT22;13482;48.234;13.006;2023-03-09T15:29:27;19.40;52.40
25616;DHT22;13482;48.234;13.006;2023-03-09T15:31:54;19.40;52.80
25616;DHT22;13482;48.234;13.006;2023-03-09T15:34:21;19.40;52.80
25616;DHT22;13482;48.234;13.006;2023-03-09T15:36:48;19.40;52.80
25616;DHT22;13482;48.234;13.006;2023-03-09T15:39:15;19.50;53.40
25616;DHT22;13482;48.234;13.006;2023-03-09T15:41:43;19.60;53.50
25616;DHT22;13482;48.234;13.006;2023-03-09T15:44:11;19.80;52.90
25616;DHT22;13482;48.234;13.006;2023-03-09T15:46:38;19.80;52.60
25616;DHT22;13482;48.234;13.006;2023-03-09T15:49:06;19.80;52.40
25616;DHT22;13482;48.234;13.006;2023-03-09T15:51:34;19.80;52.80
25616;DHT22;13482;48.234;13.006;2023-03-09T15:54:05;19.80;53.00
25616;DHT22;13482;48.234;13.006;2023-03-09T15:56:33;19.90;53.00
25616;DHT22;13482;48.234;13.006;2023-03-09T15:59:01;19.90;52.30
25616;DHT22;13482;48.234;13.006;2023-03-09T16:01:28;19.90;51.60
25616;DHT22;13482;48.234;13.006;2023-03-09T16:03:55;19.90;51.30
25616;DHT22;13482;48.234;13.006;2023-03-09T16:06:23;19.80;51.30
25616;DHT22;13482;48.234;13.006;2023-03-09T16:08:50;19.70;51.20
25616;DHT22;13482;48.234;13.006;2023-03-09T16:11:18;19.60;51.60
25616;DHT22;13482;48.234;13.006;2023-03-09T16:13:47;19.60;52.30
25616;DHT22;13482;48.234;13.006;2023-03-09T16:16:14;19.70;52.90
25616;DHT22;13482;48.234;13.006;2023-03-09T16:18:43;19.90;53.20
25616;DHT22;13482;48.234;13.006;2023-03-09T16:21:10;20.10;52.70
25616;DHT22;13482;48.234;13.006;2023-03-09T16:23:38;20.30;52.00
25616;DHT22;13482;48.234;13.006;2023-03-09T16:26:06;20.30;51.40
25616;DHT22;13482;48.234;13.006;2023-03-09T16:28:33;20.30;50.80
25616;DHT22;13482;48.234;13.006;2023-03-09T16:31:00;20.10;50.80
25616;DHT22;13482;48.234;13.006;2023-03-09T16:49:34;18.50;50.90
25616;DHT22;13482;48.234;13.006;2023-03-09T16:52:02;18.30;51.90
25616;DHT22;13482;48.234;13.006;2023-03-09T16:54:29;18.10;52.10
25616;DHT22;13482;48.234;13.006;2023-03-09T16:56:59;17.90;52.20
25616;DHT22;13482;48.234;13.006;2023-03-09T16:59:28;17.80;52.40
25616;DHT22;13482;48.234;13.006;2023-03-09T17:01:56;17.60;52.70
25616;DHT22;13482;48.234;13.006;2023-03-09T17:04:23;17.50;52.90
25616;DHT22;13482;48.234;13.006;2023-03-09T17:06:50;17.40;53.00
25616;DHT22;13482;48.234;13.006;2023-03-09T17:09:17;17.30;53.10
25616;DHT22;13482;48.234;13.006;2023-03-09T17:11:45;17.20;53.20
25616;DHT22;13482;48.234;13.006;2023-03-09T17:14:12;17.10;53.20
25616;DHT22;13482;48.234;13.006;2023-03-09T17:16:42;17.00;53.30
25616;DHT22;13482;48.234;13.006;2023-03-09T17:19:09;16.90;53.40
25616;DHT22;13482;48.234;13.006;2023-03-09T17:21:37;16.80;53.50
25616;DHT22;13482;48.234;13.006;2023-03-09T17:24:05;16.80;53.60
25616;DHT22;13482;48.234;13.006;2023-03-09T17:26:34;16.70;53.70
25616;DHT22;13482;48.234;13.006;2023-03-09T17:29:01;16.60;53.80
25616;DHT22;13482;48.234;13.006;2023-03-09T17:31:29;16.50;53.90
25616;DHT22;13482;48.234;13.006;2023-03-09T17:33:56;16.40;53.90
25616;DHT22;13482;48.234;13.006;2023-03-09T17:36:24;16.40;54.00
25616;DHT22;13482;48.234;13.006;2023-03-09T17:38:52;16.30;54.10
25616;DHT22;13482;48.234;13.006;2023-03-09T17:41:21;16.10;54.10
25616;DHT22;13482;48.234;13.006;2023-03-09T17:43:49;16.00;54.20
25616;DHT22;13482;48.234;13.006;2023-03-09T17:46:17;15.90;54.40
25616;DHT22;13482;48.234;13.006;2023-03-09T17:48:44;15.80;54.50